Canefield Airport

Partly cloudy and hazy
29oC (84oF)

Partly cloudy and hazy


Winds: Easterly @ 03kts / 06km/h

Humidity: 77%

Barometric Pressure: 1010 mb

Accumulated Rainfall for September: 110.0 mm

Updated: 18:00 local time (22:00 UTC)

Douglas-Charles Airport

Fair with slight haze
28oC (82oF)

Fair with slight haze


Winds: South easterly @ 06kts / 11km/h

Humidity: 81%

Barometric Pressure: 1012 mb

Accumulated Rainfall for September: 102.7 mm

Updated: 20:00 local time (00:00 UTC)

Satellite Imagery

Satellite Imagery
Click image for larger view. (Source: National Hurricane Center).

Aviation Routine Report (METAR)

Douglas-Charles: METAR TDPD 180000Z 13006KT 9999 FEW024 28/24 Q1012=
Canefield: METAR TDCF 172200Z 10003KT 9999 SCT022 29/24 Q1010=